createdAt,value
2019-03-09T00:01:21.407Z,100257.49
2019-03-09T00:03:51.139Z,100259.14
2019-03-09T00:06:21.263Z,100255.88
2019-03-09T00:08:51.624Z,100249.45
2019-03-09T00:11:21.391Z,100242.95
2019-03-09T00:13:50.724Z,100256.81
2019-03-09T00:16:20.376Z,100253.39
2019-03-09T00:18:50.319Z,100244.11
2019-03-09T00:21:19.965Z,100241.88
2019-03-09T00:23:49.487Z,100241.16
2019-03-09T00:26:30.007Z,100242.05
2019-03-09T00:29:10.015Z,100243.08
2019-03-09T00:31:41.951Z,100238.97
2019-03-09T00:34:11.608Z,100226.13
2019-03-09T00:36:40.935Z,100226.80
2019-03-09T00:39:11.368Z,100226.55
2019-03-09T00:41:40.679Z,100226.55
2019-03-09T00:44:09.989Z,100219.84
2019-03-09T00:46:39.295Z,100223.82
2019-03-09T00:49:11.119Z,100225.82
2019-03-09T00:51:40.330Z,100219.59
2019-03-09T00:54:09.934Z,100211.20
2019-03-09T00:56:39.989Z,100214.52
2019-03-09T00:59:09.977Z,100211.55
2019-03-09T01:01:40.251Z,100203.42
2019-03-09T01:04:10.066Z,100207.32
2019-03-09T01:06:40.972Z,100205.73
2019-03-09T01:09:10.632Z,100192.68
2019-03-09T01:11:40.647Z,100194.68
2019-03-09T01:14:09.979Z,100189.06
2019-03-09T01:16:39.321Z,100185.78
2019-03-09T01:19:09.100Z,100181.84
2019-03-09T01:21:40.314Z,100186.98
2019-03-09T01:24:10.328Z,100183.45
2019-03-09T01:26:39.938Z,100177.56
2019-03-09T01:29:09.642Z,100164.06
2019-03-09T01:31:40.701Z,100167.25
2019-03-09T01:34:10.703Z,100159.60
2019-03-09T01:36:40.410Z,100156.91
2019-03-09T01:39:11.529Z,100162.87
2019-03-09T01:41:40.897Z,100166.77
2019-03-09T01:44:10.570Z,100157.66
2019-03-09T01:46:40.291Z,100156.10
2019-03-09T01:49:09.869Z,100148.28
2019-03-09T01:51:39.209Z,100151.15
2019-03-09T01:54:08.791Z,100150.44
2019-03-09T01:56:38.116Z,100144.20
2019-03-09T01:59:07.941Z,100147.21
2019-03-09T02:01:37.528Z,100145.67
2019-03-09T02:04:06.859Z,100149.55
2019-03-09T02:06:36.545Z,100154.16
2019-03-09T02:09:07.260Z,100150.79
2019-03-09T02:11:38.940Z,100145.97
2019-03-09T02:14:08.989Z,100140.31
2019-03-09T02:16:38.342Z,100142.30
2019-03-09T02:19:09.684Z,100137.80
2019-03-09T02:21:39.277Z,100120.75
2019-03-09T02:24:10.266Z,100122.40
2019-03-09T02:26:39.562Z,100122.13
2019-03-09T02:29:08.953Z,100118.42
2019-03-09T02:31:38.252Z,100105.80
2019-03-09T02:34:08.883Z,100105.63
2019-03-09T02:36:38.446Z,100086.08
2019-03-09T02:39:21.647Z,100075.94
2019-03-09T02:41:50.951Z,100065.68
2019-03-09T02:44:20.661Z,100060.08
2019-03-09T02:46:50.301Z,100065.52
2019-03-09T02:49:19.812Z,100056.55
2019-03-09T02:51:49.227Z,100062.47
2019-03-09T02:54:18.530Z,100062.30
2019-03-09T02:56:48.121Z,100056.16
2019-03-09T02:59:17.738Z,100058.23
2019-03-09T03:01:48.714Z,100052.94
2019-03-09T03:04:18.399Z,100044.48
2019-03-09T03:06:47.700Z,100044.94
2019-03-09T03:09:17.035Z,100048.91
2019-03-09T03:11:46.338Z,100039.84
2019-03-09T03:14:15.790Z,100033.48
2019-03-09T03:16:45.211Z,100029.51
2019-03-09T03:19:14.630Z,100034.24
2019-03-09T03:21:45.447Z,100021.23
2019-03-09T03:24:15.163Z,100015.50
2019-03-09T03:26:44.482Z,100011.52
2019-03-09T03:29:14.191Z,99997.91
2019-03-09T03:31:44.017Z,100010.28
2019-03-09T03:34:13.686Z,100010.45
2019-03-09T03:36:43.143Z,99997.64
2019-03-09T03:39:12.812Z,99999.72
2019-03-09T03:41:42.807Z,99992.56
2019-03-09T03:44:12.681Z,100000.07
2019-03-09T03:46:42.056Z,99991.72
2019-03-09T03:49:12.740Z,99981.74
2019-03-09T03:51:42.462Z,99980.50
2019-03-09T03:54:12.028Z,99966.72
2019-03-09T03:56:41.779Z,99956.91
2019-03-09T03:59:11.204Z,99942.85
2019-03-09T04:01:40.776Z,99943.38
2019-03-09T04:04:10.406Z,99925.52
2019-03-09T04:06:40.416Z,99929.14
2019-03-09T04:09:09.726Z,99933.13
2019-03-09T04:11:39.355Z,99927.23
2019-03-09T04:14:08.663Z,99933.27
2019-03-09T04:16:38.174Z,99927.86
2019-03-09T04:19:08.153Z,99921.65
2019-03-09T04:21:37.852Z,99919.91
2019-03-09T04:24:07.174Z,99914.98
2019-03-09T04:26:36.785Z,99904.20
2019-03-09T04:29:06.107Z,99907.63
2019-03-09T04:31:36.459Z,99901.48
2019-03-09T04:34:06.006Z,99892.44
2019-03-09T04:36:35.546Z,99884.23
2019-03-09T04:39:05.705Z,99880.89
2019-03-09T04:41:35.008Z,99869.65
2019-03-09T04:44:04.658Z,99867.77
2019-03-09T04:46:34.069Z,99858.83
2019-03-09T04:49:03.357Z,99858.48
2019-03-09T04:51:32.687Z,99853.41
2019-03-09T04:54:02.019Z,99849.89
2019-03-09T04:56:31.482Z,99848.14
2019-03-09T04:59:01.746Z,99828.67
2019-03-09T05:01:31.336Z,99824.93
2019-03-09T05:04:28.004Z,99832.71
2019-03-09T05:06:57.881Z,99818.61
2019-03-09T05:09:48.387Z,99830.45
2019-03-09T05:12:17.844Z,99814.71
2019-03-09T05:14:47.155Z,99808.80
2019-03-09T05:17:16.578Z,99808.98
2019-03-09T05:19:45.931Z,99798.18
2019-03-09T05:22:15.867Z,99785.75
2019-03-09T05:24:46.376Z,99784.91
2019-03-09T05:27:17.003Z,99771.48
2019-03-09T05:29:46.509Z,99768.56
2019-03-09T05:32:15.844Z,99759.25
2019-03-09T05:34:45.365Z,99766.09
2019-03-09T05:37:15.031Z,99754.31
2019-03-09T05:39:44.341Z,99760.11
2019-03-09T05:42:14.399Z,99760.50
2019-03-09T05:44:44.416Z,99769.14
2019-03-09T05:47:14.022Z,99767.35
2019-03-09T05:49:43.660Z,99759.53
2019-03-09T05:52:26.954Z,99746.92
2019-03-09T05:54:58.659Z,99738.66
2019-03-09T05:57:28.042Z,99719.41
2019-03-09T05:59:58.522Z,99724.09
2019-03-09T06:02:27.867Z,99730.05
2019-03-09T06:04:57.201Z,99732.22
2019-03-09T06:07:27.142Z,99728.73
2019-03-09T06:09:57.710Z,99716.13
2019-03-09T06:12:27.020Z,99710.13
2019-03-09T06:14:57.236Z,99712.14
2019-03-09T06:17:26.552Z,99718.23
2019-03-09T06:19:56.174Z,99703.78
2019-03-09T06:22:27.715Z,99715.72
2019-03-09T06:24:57.071Z,99703.21
2019-03-09T06:27:26.726Z,99704.67
2019-03-09T06:29:56.055Z,99692.41
2019-03-09T06:32:36.634Z,99705.30
2019-03-09T06:35:22.480Z,99696.16
2019-03-09T06:37:59.596Z,99678.73
2019-03-09T06:40:29.281Z,99684.34
2019-03-09T06:42:59.201Z,99667.74
2019-03-09T06:45:29.320Z,99690.94
2019-03-09T06:47:58.884Z,99685.25
2019-03-09T06:50:28.445Z,99683.45
2019-03-09T06:52:57.847Z,99673.20
2019-03-09T06:55:27.137Z,99675.47
2019-03-09T06:57:56.878Z,99671.19
2019-03-09T07:00:37.393Z,99679.02
2019-03-09T07:03:06.886Z,99667.05
2019-03-09T07:05:36.523Z,99686.61
2019-03-09T07:08:05.899Z,99672.06
2019-03-09T07:10:36.082Z,99678.25
2019-03-09T07:13:05.871Z,99670.89
2019-03-09T07:15:38.862Z,99667.21
2019-03-09T07:18:17.245Z,99657.66
2019-03-09T07:20:46.959Z,99671.57
2019-03-09T07:23:16.372Z,99662.54
2019-03-09T07:25:45.696Z,99673.78
2019-03-09T07:28:16.020Z,99675.90
2019-03-09T07:30:46.189Z,99680.69
2019-03-09T07:33:15.523Z,99685.52
2019-03-09T07:35:45.221Z,99671.59
2019-03-09T07:38:15.699Z,99678.03
2019-03-09T07:40:45.356Z,99699.69
2019-03-09T07:43:14.696Z,99688.22
2019-03-09T07:45:44.375Z,99648.71
2019-03-09T07:48:13.686Z,99693.76
2019-03-09T07:50:43.570Z,99678.34
2019-03-09T07:53:14.204Z,99679.59
2019-03-09T07:55:44.212Z,99674.43
2019-03-09T07:58:13.828Z,99620.47
2019-03-09T08:00:44.014Z,99651.44
2019-03-09T08:05:51.355Z,99654.34
2019-03-09T08:08:21.022Z,99657.61
2019-03-09T08:10:50.978Z,99659.16
2019-03-09T08:13:20.283Z,99654.67
2019-03-09T08:15:50.189Z,99639.94
2019-03-09T08:18:20.771Z,99660.37
2019-03-09T08:20:50.071Z,99673.17
2019-03-09T08:23:19.669Z,99648.63
2019-03-09T08:25:48.970Z,99639.73
2019-03-09T08:28:18.586Z,99654.20
2019-03-09T08:30:47.911Z,99626.33
2019-03-09T08:33:17.248Z,99646.41
2019-03-09T08:35:46.539Z,99636.63
2019-03-09T08:38:16.165Z,99670.66
2019-03-09T08:40:45.511Z,99647.23
2019-03-09T08:43:15.285Z,99621.92
2019-03-09T08:45:44.676Z,99653.48
2019-03-09T08:48:14.299Z,99645.63
2019-03-09T08:50:44.441Z,99667.84
2019-03-09T08:53:14.074Z,99683.26
2019-03-09T08:55:43.393Z,99659.16
2019-03-09T08:58:13.247Z,99646.84
2019-03-09T09:00:42.979Z,99639.83
2019-03-09T09:03:12.273Z,99670.84
2019-03-09T09:05:41.954Z,99626.54
2019-03-09T09:08:11.295Z,99645.83
2019-03-09T09:10:40.958Z,99637.72
2019-03-09T09:13:10.695Z,99645.06
2019-03-09T09:15:40.184Z,99652.85
2019-03-09T09:18:09.789Z,99699.14
2019-03-09T09:20:39.169Z,99674.59
2019-03-09T09:23:17.643Z,99660.56
2019-03-09T09:25:47.217Z,99648.80
2019-03-09T09:28:16.559Z,99623.86
2019-03-09T09:30:47.468Z,99663.38
2019-03-09T09:33:17.048Z,99663.75
2019-03-09T09:35:46.431Z,99675.58
2019-03-09T09:38:15.799Z,99684.64
2019-03-09T09:40:45.570Z,99677.38
2019-03-09T09:43:14.895Z,99689.51
2019-03-09T09:45:45.654Z,99673.22
2019-03-09T09:48:15.557Z,99653.04
2019-03-09T09:50:46.577Z,99641.63
2019-03-09T09:53:15.906Z,99694.34
2019-03-09T09:55:45.698Z,99700.86
2019-03-09T09:58:16.073Z,99683.64
2019-03-09T10:00:45.614Z,99668.10
2019-03-09T10:03:15.094Z,99677.77
2019-03-09T10:05:45.948Z,99675.56
2019-03-09T10:08:15.234Z,99693.69
2019-03-09T10:10:44.867Z,99652.81
2019-03-09T10:13:14.467Z,99681.86
2019-03-09T10:15:44.072Z,99701.42
2019-03-09T10:18:13.785Z,99687.56
2019-03-09T10:20:45.022Z,99675.07
2019-03-09T10:23:16.460Z,99691.45
2019-03-09T10:25:46.155Z,99698.05
2019-03-09T10:28:16.005Z,99697.25
2019-03-09T10:30:45.701Z,99706.06
2019-03-09T10:33:17.186Z,99707.12
2019-03-09T10:35:46.769Z,99708.91
2019-03-09T10:38:16.093Z,99715.24
2019-03-09T10:40:45.399Z,99709.81
2019-03-09T10:43:14.780Z,99702.59
2019-03-09T10:45:44.365Z,99723.27
2019-03-09T10:48:13.709Z,99707.06
2019-03-09T10:50:43.011Z,99709.23
2019-03-09T10:53:13.194Z,99698.37
2019-03-09T10:55:42.920Z,99712.37
2019-03-09T10:58:12.505Z,99714.10
2019-03-09T11:00:45.052Z,99716.73
2019-03-09T11:03:14.355Z,99716.71
2019-03-09T11:05:43.747Z,99722.39
2019-03-09T11:08:13.411Z,99720.59
2019-03-09T11:10:43.051Z,99718.57
2019-03-09T11:13:12.610Z,99724.00
2019-03-09T11:15:42.254Z,99707.97
2019-03-09T11:18:11.831Z,99713.39
2019-03-09T11:20:41.431Z,99687.33
2019-03-09T11:23:11.079Z,99730.19
2019-03-09T11:25:40.438Z,99720.84
2019-03-09T11:28:13.060Z,99718.84
2019-03-09T11:30:42.372Z,99698.98
2019-03-09T11:33:11.952Z,99701.97
2019-03-09T11:35:41.572Z,99705.16
2019-03-09T11:38:11.225Z,99689.20
2019-03-09T11:40:40.538Z,99687.31
2019-03-09T11:43:10.184Z,99705.73
2019-03-09T11:45:39.990Z,99693.75
2019-03-09T11:48:09.320Z,99694.95
2019-03-09T11:50:38.917Z,99684.25
2019-03-09T11:53:08.538Z,99691.16
2019-03-09T11:55:38.098Z,99687.42
2019-03-09T11:58:07.747Z,99693.61
2019-03-09T12:00:41.408Z,99687.00
2019-03-09T12:03:10.769Z,99666.16
2019-03-09T12:05:40.376Z,99661.38
2019-03-09T12:08:09.970Z,99682.35
2019-03-09T12:10:39.534Z,99683.20
2019-03-09T12:13:08.887Z,99685.34
2019-03-09T12:15:38.220Z,99673.03
2019-03-09T12:18:07.787Z,99685.78
2019-03-09T12:20:37.146Z,99684.09
2019-03-09T12:23:21.313Z,99674.95
2019-03-09T12:25:51.038Z,99689.59
2019-03-09T12:28:20.613Z,99671.94
2019-03-09T12:30:50.207Z,99674.55
2019-03-09T12:33:19.518Z,99667.97
2019-03-09T12:35:48.847Z,99680.59
2019-03-09T12:38:18.180Z,99675.25
2019-03-09T12:40:47.485Z,99677.81
2019-03-09T12:43:17.128Z,99687.66
2019-03-09T12:45:46.840Z,99690.73
2019-03-09T12:48:16.249Z,99684.34
2019-03-09T12:50:45.840Z,99684.44
2019-03-09T12:53:15.199Z,99679.68
2019-03-09T12:55:44.859Z,99678.18
2019-03-09T12:58:14.168Z,99679.81
2019-03-09T13:00:43.545Z,99676.58
2019-03-09T13:03:13.124Z,99689.75
2019-03-09T13:05:42.736Z,99688.34
2019-03-09T13:08:12.379Z,99696.20
2019-03-09T13:10:41.702Z,99694.87
2019-03-09T13:13:11.401Z,99703.92
2019-03-09T13:15:40.998Z,99695.48
2019-03-09T13:18:10.718Z,99697.92
2019-03-09T13:20:40.288Z,99699.14
2019-03-09T13:23:12.704Z,99693.14
2019-03-09T13:25:42.090Z,99693.73
2019-03-09T13:28:11.670Z,99670.28
2019-03-09T13:30:41.062Z,99670.65
2019-03-09T13:33:10.457Z,99667.31
2019-03-09T13:35:40.063Z,99667.05
2019-03-09T13:38:09.367Z,99666.12
2019-03-09T13:40:42.011Z,99662.45
2019-03-09T13:43:11.328Z,99656.59
2019-03-09T13:45:42.403Z,99654.66
2019-03-09T13:48:11.779Z,99642.13
2019-03-09T13:50:41.131Z,99637.95
2019-03-09T13:53:12.086Z,99637.09
2019-03-09T13:55:41.409Z,99625.26
2019-03-09T13:58:13.314Z,99612.69
2019-03-09T14:00:42.899Z,99591.52
2019-03-09T14:03:12.691Z,99575.02
2019-03-09T14:05:42.307Z,99579.64
2019-03-09T14:08:11.914Z,99565.56
2019-03-09T14:10:41.549Z,99564.10
2019-03-09T14:13:10.866Z,99554.68
2019-03-09T14:15:40.690Z,99552.64
2019-03-09T14:18:10.142Z,99543.99
2019-03-09T14:20:39.740Z,99555.62
2019-03-09T14:23:09.091Z,99531.28
2019-03-09T14:25:38.420Z,99505.05
2019-03-09T14:28:08.035Z,99553.84
2019-03-09T14:30:37.371Z,99561.86
2019-03-09T14:33:06.693Z,99561.63
2019-03-09T14:35:36.309Z,99577.14
2019-03-09T14:38:05.920Z,99595.19
2019-03-09T14:40:35.739Z,99586.72
2019-03-09T14:43:05.311Z,99596.89
2019-03-09T14:45:34.915Z,99591.48
2019-03-09T14:48:04.568Z,99590.48
2019-03-09T14:50:34.152Z,99591.97
2019-03-09T14:53:06.289Z,99586.44
2019-03-09T14:55:35.889Z,99596.30
2019-03-09T14:58:05.601Z,99569.56
2019-03-09T15:00:34.934Z,99573.48
2019-03-09T15:03:04.559Z,99573.94
2019-03-09T15:05:34.167Z,99571.23
2019-03-09T15:08:03.486Z,99563.55
2019-03-09T15:10:32.863Z,99546.42
2019-03-09T15:13:02.158Z,99534.75
2019-03-09T15:15:31.519Z,99539.48
2019-03-09T15:18:01.090Z,99523.08
2019-03-09T15:20:30.706Z,99533.39
2019-03-09T15:23:00.293Z,99509.59
2019-03-09T15:25:31.570Z,99524.27
2019-03-09T15:28:01.345Z,99508.43
2019-03-09T15:30:30.674Z,99513.66
2019-03-09T15:33:00.273Z,99504.83
2019-03-09T15:35:29.887Z,99495.42
2019-03-09T15:37:59.488Z,99497.53
2019-03-09T15:40:29.053Z,99505.76
2019-03-09T15:42:58.642Z,99498.05
2019-03-09T15:45:28.041Z,99497.37
2019-03-09T15:47:57.639Z,99494.29
2019-03-09T15:50:27.220Z,99491.45
2019-03-09T15:52:56.841Z,99486.17
2019-03-09T15:55:26.466Z,99474.48
2019-03-09T15:57:55.789Z,99474.30
2019-03-09T16:00:25.721Z,99455.61
2019-03-09T16:02:55.315Z,99451.67
2019-03-09T16:05:24.751Z,99447.61
2019-03-09T16:07:56.350Z,99421.20
2019-03-09T16:10:25.753Z,99417.32
2019-03-09T16:12:55.566Z,99402.34
2019-03-09T16:15:25.149Z,99395.55
2019-03-09T16:17:54.472Z,99373.36
2019-03-09T16:20:30.702Z,99373.66
2019-03-09T16:23:00.345Z,99353.11
2019-03-09T16:25:29.987Z,99352.70
2019-03-09T16:27:59.453Z,99343.49
2019-03-09T16:30:29.057Z,99345.27
2019-03-09T16:32:58.691Z,99333.84
2019-03-09T16:35:28.278Z,99337.08
2019-03-09T16:37:57.897Z,99340.61
2019-03-09T16:40:27.209Z,99339.48
2019-03-09T16:42:56.604Z,99363.55
2019-03-09T16:45:26.270Z,99365.61
2019-03-09T16:47:55.895Z,99370.83
2019-03-09T16:50:25.293Z,99355.98
2019-03-09T16:52:54.647Z,99356.73
2019-03-09T16:55:24.110Z,99352.34
2019-03-09T16:57:53.420Z,99349.78
2019-03-09T17:00:23.785Z,99343.33
2019-03-09T17:02:53.120Z,99326.95
2019-03-09T17:05:22.465Z,99319.19
2019-03-09T17:07:52.137Z,99309.02
2019-03-09T17:10:21.476Z,99303.08
2019-03-09T17:12:50.806Z,99284.59
2019-03-09T17:15:26.938Z,99292.35
2019-03-09T17:17:56.640Z,99303.96
2019-03-09T17:20:26.323Z,99276.09
2019-03-09T17:22:56.027Z,99279.27
2019-03-09T17:25:25.424Z,99255.27
2019-03-09T17:27:55.155Z,99265.88
2019-03-09T17:30:24.845Z,99261.81
2019-03-09T17:32:54.243Z,99250.09
2019-03-09T17:35:26.970Z,99266.38
2019-03-09T17:37:56.538Z,99264.19
2019-03-09T17:40:26.248Z,99263.80
2019-03-09T17:42:55.560Z,99261.07
2019-03-09T17:45:28.710Z,99245.69
2019-03-09T17:47:58.525Z,99242.57
2019-03-09T17:50:27.841Z,99231.28
2019-03-09T17:52:57.185Z,99237.23
2019-03-09T17:55:26.502Z,99209.34
2019-03-09T17:57:55.867Z,99201.63
2019-03-09T18:00:41.851Z,99174.60
2019-03-09T18:03:03.186Z,99172.78
2019-03-09T18:05:32.879Z,99176.45
2019-03-09T18:08:02.254Z,99174.19
2019-03-09T18:10:46.176Z,99183.25
2019-03-09T18:13:15.502Z,99176.27
2019-03-09T18:15:45.131Z,99190.09
2019-03-09T18:18:14.453Z,99192.97
2019-03-09T18:20:44.167Z,99195.89
2019-03-09T18:23:13.763Z,99169.03
2019-03-09T18:25:43.358Z,99154.18
2019-03-09T18:28:12.996Z,99194.42
2019-03-09T18:30:42.334Z,99159.84
2019-03-09T18:33:11.648Z,99180.89
2019-03-09T18:35:41.880Z,99171.95
2019-03-09T18:38:11.576Z,99185.22
2019-03-09T18:40:40.928Z,99194.43
2019-03-09T18:43:10.336Z,99199.81
2019-03-09T18:45:39.725Z,99208.03
2019-03-09T18:48:09.052Z,99230.00
2019-03-09T18:50:38.377Z,99240.86
2019-03-09T18:53:08.193Z,99227.16
2019-03-09T18:55:37.958Z,99216.89
2019-03-09T18:58:07.388Z,99204.25
2019-03-09T19:00:37.078Z,99219.64
2019-03-09T19:03:06.524Z,99218.61
2019-03-09T19:05:36.183Z,99250.42
2019-03-09T19:08:05.541Z,99269.11
2019-03-09T19:10:35.165Z,99283.77
2019-03-09T19:13:04.781Z,99311.29
2019-03-09T19:15:34.480Z,99336.67
2019-03-09T19:18:04.197Z,99290.16
2019-03-09T19:20:33.858Z,99293.32
2019-03-09T19:23:03.577Z,99288.39
2019-03-09T19:25:33.436Z,99303.02
2019-03-09T19:28:02.823Z,99310.62
2019-03-09T19:30:32.814Z,99325.40
2019-03-09T19:33:02.376Z,99336.50
2019-03-09T19:35:32.626Z,99345.59
2019-03-09T19:38:02.000Z,99330.00
2019-03-09T19:40:31.323Z,99335.64
2019-03-09T19:43:00.619Z,99341.09
2019-03-09T19:45:30.184Z,99361.66
2019-03-09T19:47:59.774Z,99363.20
2019-03-09T19:50:29.387Z,99380.44
2019-03-09T19:52:59.288Z,99383.29
2019-03-09T19:55:28.755Z,99387.11
2019-03-09T19:57:58.346Z,99391.78
2019-03-09T20:00:27.717Z,99404.24
2019-03-09T20:02:57.391Z,99424.51
2019-03-09T20:05:27.104Z,99441.58
2019-03-09T20:07:56.680Z,99453.88
2019-03-09T20:10:26.132Z,99455.34
2019-03-09T20:12:55.482Z,99466.46
2019-03-09T20:15:25.144Z,99408.45
2019-03-09T20:17:54.965Z,99478.11
2019-03-09T20:20:24.303Z,99485.59
2019-03-09T20:22:53.611Z,99524.59
2019-03-09T20:25:28.628Z,99513.47
2019-03-09T20:27:58.056Z,99524.25
2019-03-09T20:30:27.693Z,99546.67
2019-03-09T20:32:57.028Z,99545.66
2019-03-09T20:35:26.551Z,99543.33
2019-03-09T20:37:56.611Z,99527.59
2019-03-09T20:40:26.195Z,99541.52
2019-03-09T20:42:55.867Z,99546.83
2019-03-09T20:45:25.569Z,99554.78
2019-03-09T20:47:55.282Z,99565.26
2019-03-09T20:50:25.180Z,99555.47
2019-03-09T20:52:54.793Z,99573.38
2019-03-09T20:55:24.383Z,99560.93
2019-03-09T20:57:54.021Z,99578.03
2019-03-09T21:00:24.152Z,99603.91
2019-03-09T21:02:53.778Z,99591.31
2019-03-09T21:05:23.505Z,99607.55
2019-03-09T21:07:52.910Z,99635.42
2019-03-09T21:10:22.424Z,99624.14
2019-03-09T21:13:03.896Z,99636.73
2019-03-09T21:15:33.220Z,99648.38
2019-03-09T21:18:02.598Z,99676.55
2019-03-09T21:20:31.955Z,99675.36
2019-03-09T21:23:01.583Z,99668.70
2019-03-09T21:25:30.937Z,99695.89
2019-03-09T21:28:00.261Z,99704.51
2019-03-09T21:30:29.578Z,99712.81
2019-03-09T21:32:59.175Z,99705.13
2019-03-09T21:35:29.738Z,99747.08
2019-03-09T21:37:59.061Z,99738.44
2019-03-09T21:40:28.687Z,99739.75
2019-03-09T21:42:58.354Z,99752.30
2019-03-09T21:45:27.725Z,99761.56
2019-03-09T21:47:57.342Z,99788.37
2019-03-09T21:50:26.983Z,99764.80
2019-03-09T21:52:56.348Z,99787.86
2019-03-09T21:55:26.034Z,99798.41
2019-03-09T21:57:55.637Z,99801.38
2019-03-09T22:00:24.979Z,99804.77
2019-03-09T22:02:54.357Z,99815.97
2019-03-09T22:05:23.681Z,99815.63
2019-03-09T22:07:53.035Z,99807.64
2019-03-09T22:10:22.616Z,99827.55
2019-03-09T22:12:51.927Z,99831.11
2019-03-09T22:15:21.537Z,99840.73
2019-03-09T22:17:51.125Z,99848.47
2019-03-09T22:20:20.782Z,99840.70
2019-03-09T22:22:50.382Z,99849.76
2019-03-09T22:25:21.367Z,99868.27
2019-03-09T22:27:50.649Z,99874.53
2019-03-09T22:30:23.250Z,99876.00
2019-03-09T22:32:52.585Z,99888.76
2019-03-09T22:35:21.883Z,99891.84
2019-03-09T22:37:51.228Z,99891.89
2019-03-09T22:40:21.361Z,99895.11
2019-03-09T22:42:51.024Z,99902.66
2019-03-09T22:45:20.371Z,99902.00
2019-03-09T22:47:49.969Z,99902.80
2019-03-09T22:50:23.085Z,99904.61
2019-03-09T22:52:52.638Z,99903.94
2019-03-09T22:55:22.264Z,99915.99
2019-03-09T22:57:51.566Z,99923.84
2019-03-09T23:00:25.795Z,99934.66
2019-03-09T23:02:55.112Z,99934.34
2019-03-09T23:05:24.418Z,99936.59
2019-03-09T23:07:53.751Z,99932.30
2019-03-09T23:10:26.302Z,99927.98
2019-03-09T23:12:55.663Z,99944.00
2019-03-09T23:15:25.298Z,99947.05
2019-03-09T23:17:54.871Z,99954.77
2019-03-09T23:20:24.518Z,99965.00
2019-03-09T23:22:54.129Z,99959.66
2019-03-09T23:25:23.429Z,99958.41
2019-03-09T23:27:52.833Z,99963.64
2019-03-09T23:30:23.059Z,99959.89
2019-03-09T23:32:52.399Z,99961.05
2019-03-09T23:35:22.321Z,99964.13
2019-03-09T23:37:51.616Z,99976.40
2019-03-09T23:40:23.814Z,99977.66
2019-03-09T23:42:53.421Z,99973.50
2019-03-09T23:45:29.579Z,99989.58
2019-03-09T23:47:59.158Z,99993.20
2019-03-09T23:50:28.501Z,99987.52
2019-03-09T23:52:58.102Z,100002.14
2019-03-09T23:55:27.730Z,100003.78
2019-03-09T23:57:57.350Z,99996.78
